sensor_id;sensor_type;location;lat;lon;timestamp;pressure;altitude;pressure_sealevel;temperature;humidity
78643;BME280;67954;47.618;17.606;2023-05-29T00:00:01;100266.38;;;14.97;75.98
78643;BME280;67954;47.618;17.606;2023-05-29T00:00:35;100260.31;;;14.95;75.78
78643;BME280;67954;47.618;17.606;2023-05-29T00:01:06;100269.41;;;15.02;75.46
78643;BME280;67954;47.618;17.606;2023-05-29T00:01:39;100263.28;;;15.08;75.58
78643;BME280;67954;47.618;17.606;2023-05-29T00:02:11;100263.47;;;15.07;75.75
78643;BME280;67954;47.618;17.606;2023-05-29T00:02:43;100255.16;;;15.08;76.05
78643;BME280;67954;47.618;17.606;2023-05-29T00:03:14;100262.94;;;15.11;75.71
78643;BME280;67954;47.618;17.606;2023-05-29T00:03:45;100268.34;;;15.11;76.13
78643;BME280;67954;47.618;17.606;2023-05-29T00:04:16;100267.50;;;15.11;75.87
78643;BME280;67954;47.618;17.606;2023-05-29T00:04:47;100258.53;;;15.10;75.44
78643;BME280;67954;47.618;17.606;2023-05-29T00:05:18;100258.53;;;15.10;75.90
78643;BME280;67954;47.618;17.606;2023-05-29T00:05:50;100262.09;;;15.11;75.82
78643;BME280;67954;47.618;17.606;2023-05-29T00:06:21;100265.47;;;15.13;75.83
78643;BME280;67954;47.618;17.606;2023-05-29T00:06:52;100261.91;;;15.12;75.44
78643;BME280;67954;47.618;17.606;2023-05-29T00:07:24;100253.97;;;15.11;75.79
78643;BME280;67954;47.618;17.606;2023-05-29T00:07:54;100262.63;;;15.06;76.19
78643;BME280;67954;47.618;17.606;2023-05-29T00:08:26;100256.38;;;15.06;75.69
78643;BME280;67954;47.618;17.606;2023-05-29T00:08:57;100258.88;;;15.07;76.26
78643;BME280;67954;47.618;17.606;2023-05-29T00:09:28;100259.91;;;15.06;75.67
78643;BME280;67954;47.618;17.606;2023-05-29T00:10:00;100255.53;;;15.05;76.13
78643;BME280;67954;47.618;17.606;2023-05-29T00:10:31;100254.88;;;15.03;76.14
78643;BME280;67954;47.618;17.606;2023-05-29T00:11:03;100254.19;;;15.01;75.87
78643;BME280;67954;47.618;17.606;2023-05-29T00:11:34;100261.13;;;15.04;75.54
78643;BME280;67954;47.618;17.606;2023-05-29T00:12:05;100252.00;;;15.05;75.99
78643;BME280;67954;47.618;17.606;2023-05-29T00:12:38;100254.03;;;15.02;75.85
78643;BME280;67954;47.618;17.606;2023-05-29T00:13:09;100253.84;;;15.04;75.85
78643;BME280;67954;47.618;17.606;2023-05-29T00:13:40;100246.94;;;15.01;75.61
78643;BME280;67954;47.618;17.606;2023-05-29T00:14:12;100254.19;;;15.01;75.84
78643;BME280;67954;47.618;17.606;2023-05-29T00:14:44;100242.72;;;14.99;75.88
78643;BME280;67954;47.618;17.606;2023-05-29T00:15:16;100242.88;;;14.97;76.15
78643;BME280;67954;47.618;17.606;2023-05-29T00:15:47;100251.16;;;14.96;76.12
78643;BME280;67954;47.618;17.606;2023-05-29T00:16:19;100249.31;;;14.96;75.81
78643;BME280;67954;47.618;17.606;2023-05-29T00:16:51;100253.03;;;14.95;76.11
78643;BME280;67954;47.618;17.606;2023-05-29T00:17:22;100253.03;;;14.95;75.84
78643;BME280;67954;47.618;17.606;2023-05-29T00:17:55;100246.13;;;14.93;75.92
78643;BME280;67954;47.618;17.606;2023-05-29T00:18:25;100249.13;;;14.98;75.85
78643;BME280;67954;47.618;17.606;2023-05-29T00:18:57;100251.84;;;14.98;76.19
78643;BME280;67954;47.618;17.606;2023-05-29T00:19:29;100251.84;;;14.98;76.24
78643;BME280;67954;47.618;17.606;2023-05-29T00:20:00;100250.81;;;14.99;75.84
78643;BME280;67954;47.618;17.606;2023-05-29T00:20:31;100243.91;;;14.96;76.18
78643;BME280;67954;47.618;17.606;2023-05-29T00:21:05;100249.13;;;14.98;75.95
78643;BME280;67954;47.618;17.606;2023-05-29T00:21:36;100249.47;;;14.95;76.30
78643;BME280;67954;47.618;17.606;2023-05-29T00:22:07;100253.03;;;14.95;76.50
78643;BME280;67954;47.618;17.606;2023-05-29T00:22:39;100249.31;;;14.96;76.42
78643;BME280;67954;47.618;17.606;2023-05-29T00:23:10;100252.00;;;14.96;76.16
78643;BME280;67954;47.618;17.606;2023-05-29T00:23:41;100249.13;;;14.98;76.22
78643;BME280;67954;47.618;17.606;2023-05-29T00:24:13;100250.81;;;14.99;76.35
78643;BME280;67954;47.618;17.606;2023-05-29T00:24:44;100244.75;;;14.97;76.15
78643;BME280;67954;47.618;17.606;2023-05-29T00:25:15;100246.94;;;15.01;75.57
78643;BME280;67954;47.618;17.606;2023-05-29T00:25:46;100251.34;;;14.94;76.05
78643;BME280;67954;47.618;17.606;2023-05-29T00:26:18;100253.75;;;14.89;75.34
78643;BME280;67954;47.618;17.606;2023-05-29T00:26:52;100242.47;;;14.78;75.53
78643;BME280;67954;47.618;17.606;2023-05-29T00:27:23;100250.59;;;14.78;75.59
78643;BME280;67954;47.618;17.606;2023-05-29T00:27:55;100251.91;;;14.82;75.70
78643;BME280;67954;47.618;17.606;2023-05-29T00:28:26;100253.41;;;14.84;75.54
78643;BME280;67954;47.618;17.606;2023-05-29T00:28:56;100254.25;;;14.85;75.82
78643;BME280;67954;47.618;17.606;2023-05-29T00:29:28;100252.91;;;14.89;75.36
78643;BME280;67954;47.618;17.606;2023-05-29T00:30:00;100248.50;;;14.88;75.90
78643;BME280;67954;47.618;17.606;2023-05-29T00:30:33;100248.69;;;14.86;75.74
78643;BME280;67954;47.618;17.606;2023-05-29T00:31:05;100249.19;;;14.90;75.82
78643;BME280;67954;47.618;17.606;2023-05-29T00:31:35;100260.19;;;14.88;75.95
78643;BME280;67954;47.618;17.606;2023-05-29T00:32:06;100246.81;;;14.87;76.16
78643;BME280;67954;47.618;17.606;2023-05-29T00:32:38;100258.66;;;14.86;75.95
78643;BME280;67954;47.618;17.606;2023-05-29T00:33:09;100256.44;;;14.89;76.14
78643;BME280;67954;47.618;17.606;2023-05-29T00:33:40;100255.59;;;14.89;75.73
78643;BME280;67954;47.618;17.606;2023-05-29T00:34:12;100265.59;;;14.88;76.17
78643;BME280;67954;47.618;17.606;2023-05-29T00:34:43;100257.28;;;14.90;76.14
78643;BME280;67954;47.618;17.606;2023-05-29T00:35:14;100251.03;;;14.89;75.59
78643;BME280;67954;47.618;17.606;2023-05-29T00:35:45;100259.00;;;14.91;75.77
78643;BME280;67954;47.618;17.606;2023-05-29T00:36:18;100253.91;;;14.88;75.56
78643;BME280;67954;47.618;17.606;2023-05-29T00:36:49;100256.97;;;14.85;75.75
78643;BME280;67954;47.618;17.606;2023-05-29T00:37:20;100251.44;;;14.78;76.10
78643;BME280;67954;47.618;17.606;2023-05-29T00:37:53;100247.16;;;14.84;75.63
78643;BME280;67954;47.618;17.606;2023-05-29T00:38:23;100255.78;;;14.87;75.63
78643;BME280;67954;47.618;17.606;2023-05-29T00:38:54;100245.47;;;14.83;75.40
78643;BME280;67954;47.618;17.606;2023-05-29T00:39:26;100235.88;;;14.72;75.49
78643;BME280;67954;47.618;17.606;2023-05-29T00:39:57;100250.09;;;14.74;76.01
78643;BME280;67954;47.618;17.606;2023-05-29T00:40:28;100240.09;;;14.75;75.38
78643;BME280;67954;47.618;17.606;2023-05-29T00:40:59;100249.88;;;14.84;75.76
78643;BME280;67954;47.618;17.606;2023-05-29T00:41:30;100244.47;;;14.84;75.46
78643;BME280;67954;47.618;17.606;2023-05-29T00:42:01;100242.59;;;14.84;75.89
78643;BME280;67954;47.618;17.606;2023-05-29T00:42:32;100245.13;;;14.86;76.10
78643;BME280;67954;47.618;17.606;2023-05-29T00:43:04;100245.13;;;14.86;76.04
78643;BME280;67954;47.618;17.606;2023-05-29T00:43:35;100234.50;;;14.84;75.44
78643;BME280;67954;47.618;17.606;2023-05-29T00:44:08;100244.47;;;14.84;75.73
78643;BME280;67954;47.618;17.606;2023-05-29T00:44:40;100243.84;;;14.74;75.82
78643;BME280;67954;47.618;17.606;2023-05-29T00:45:11;100244.69;;;14.74;75.75
78643;BME280;67954;47.618;17.606;2023-05-29T00:45:45;100238.94;;;14.69;75.57
78643;BME280;67954;47.618;17.606;2023-05-29T00:46:16;100241.81;;;14.68;76.03
78643;BME280;67954;47.618;17.606;2023-05-29T00:46:48;100249.28;;;14.65;75.70
78643;BME280;67954;47.618;17.606;2023-05-29T00:47:20;100247.75;;;14.63;75.92
78643;BME280;67954;47.618;17.606;2023-05-29T00:47:52;100241.19;;;14.57;75.64
78643;BME280;67954;47.618;17.606;2023-05-29T00:48:23;100243.88;;;14.57;75.96
78643;BME280;67954;47.618;17.606;2023-05-29T00:48:54;100240.31;;;14.57;75.82
78643;BME280;67954;47.618;17.606;2023-05-29T00:49:26;100239.34;;;14.50;75.75
78643;BME280;67954;47.618;17.606;2023-05-29T00:49:57;100243.91;;;14.49;75.90
78643;BME280;67954;47.618;17.606;2023-05-29T00:50:29;100239.53;;;14.48;75.97
78643;BME280;67954;47.618;17.606;2023-05-29T00:51:02;100240.19;;;14.42;75.84
78643;BME280;67954;47.618;17.606;2023-05-29T00:51:33;100238.50;;;14.41;75.97
78643;BME280;67954;47.618;17.606;2023-05-29T00:52:06;100225.00;;;14.33;75.86
78643;BME280;67954;47.618;17.606;2023-05-29T00:52:39;100237.84;;;14.39;75.90
78643;BME280;67954;47.618;17.606;2023-05-29T00:53:13;100235.47;;;14.36;75.79
78643;BME280;67954;47.618;17.606;2023-05-29T00:53:45;100232.25;;;14.32;76.62
78643;BME280;67954;47.618;17.606;2023-05-29T00:54:21;100232.09;;;14.34;76.29
78643;BME280;67954;47.618;17.606;2023-05-29T00:54:53;100229.72;;;14.39;76.41
78643;BME280;67954;47.618;17.606;2023-05-29T00:55:25;100235.47;;;14.44;75.91
78643;BME280;67954;47.618;17.606;2023-05-29T00:55:56;100230.06;;;14.36;76.25
78643;BME280;67954;47.618;17.606;2023-05-29T00:56:28;100235.13;;;14.47;75.89
78643;BME280;67954;47.618;17.606;2023-05-29T00:57:01;100210.13;;;14.37;75.60
78643;BME280;67954;47.618;17.606;2023-05-29T00:57:33;100233.09;;;14.49;76.16
78643;BME280;67954;47.618;17.606;2023-05-29T00:58:05;100234.63;;;14.52;75.95
78643;BME280;67954;47.618;17.606;2023-05-29T00:58:37;100237.16;;;14.53;75.68
78643;BME280;67954;47.618;17.606;2023-05-29T00:59:08;100230.91;;;14.53;75.81
78643;BME280;67954;47.618;17.606;2023-05-29T00:59:42;100240.03;;;14.52;76.12
78643;BME280;67954;47.618;17.606;2023-05-29T01:00:16;100231.91;;;14.52;75.43
78643;BME280;67954;47.618;17.606;2023-05-29T01:00:48;100232.38;;;14.55;75.76
78643;BME280;67954;47.618;17.606;2023-05-29T01:01:21;100230.34;;;14.57;75.89
78643;BME280;67954;47.618;17.606;2023-05-29T01:01:54;100240.31;;;14.57;76.14
78643;BME280;67954;47.618;17.606;2023-05-29T01:02:28;100239.66;;;14.55;76.10
78643;BME280;67954;47.618;17.606;2023-05-29T01:03:00;100239.66;;;14.55;75.97
78643;BME280;67954;47.618;17.606;2023-05-29T01:03:34;100239.47;;;14.56;75.87
78643;BME280;67954;47.618;17.606;2023-05-29T01:04:06;100239.00;;;14.53;75.66
78643;BME280;67954;47.618;17.606;2023-05-29T01:04:38;100229.22;;;14.44;75.50
78643;BME280;67954;47.618;17.606;2023-05-29T01:05:10;100241.88;;;14.51;75.68
78643;BME280;67954;47.618;17.606;2023-05-29T01:05:41;100233.09;;;14.49;75.38
78643;BME280;67954;47.618;17.606;2023-05-29T01:06:13;100244.94;;;14.48;75.87
78643;BME280;67954;47.618;17.606;2023-05-29T01:06:45;100236.97;;;14.47;75.51
78643;BME280;67954;47.618;17.606;2023-05-29T01:07:16;100240.69;;;14.46;75.47
78643;BME280;67954;47.618;17.606;2023-05-29T01:07:48;100238.16;;;14.44;75.52
78643;BME280;67954;47.618;17.606;2023-05-29T01:08:19;100237.16;;;14.45;75.76
78643;BME280;67954;47.618;17.606;2023-05-29T01:08:50;100233.09;;;14.41;75.42
78643;BME280;67954;47.618;17.606;2023-05-29T01:09:22;100236.31;;;14.45;75.79
78643;BME280;67954;47.618;17.606;2023-05-29T01:09:53;100232.09;;;14.42;75.83
78643;BME280;67954;47.618;17.606;2023-05-29T01:10:24;100234.78;;;14.42;75.29
78643;BME280;67954;47.618;17.606;2023-05-29T01:11:04;100226.69;;;14.34;75.99
78643;BME280;67954;47.618;17.606;2023-05-29T01:11:42;100233.59;;;14.37;75.64
78643;BME280;67954;47.618;17.606;2023-05-29T01:12:26;100241.72;;;14.37;75.85
78643;BME280;67954;47.618;17.606;2023-05-29T01:13:04;100233.44;;;14.38;76.42
78643;BME280;67954;47.618;17.606;2023-05-29T01:13:38;100235.28;;;14.38;76.29
78643;BME280;67954;47.618;17.606;2023-05-29T01:14:17;100232.75;;;14.36;76.38
78643;BME280;67954;47.618;17.606;2023-05-29T01:15:10;100236.66;;;14.34;76.30
78643;BME280;67954;47.618;17.606;2023-05-29T01:15:54;100241.56;;;14.38;75.73
78643;BME280;67954;47.618;17.606;2023-05-29T01:16:35;100232.94;;;14.35;76.37
78643;BME280;67954;47.618;17.606;2023-05-29T01:17:12;100235.81;;;14.33;76.52
78643;BME280;67954;47.618;17.606;2023-05-29T01:17:58;100251.69;;;14.36;76.46
78643;BME280;67954;47.618;17.606;2023-05-29T01:18:39;100243.75;;;14.35;76.19
78643;BME280;67954;47.618;17.606;2023-05-29T01:19:24;100245.44;;;14.36;76.33
78643;BME280;67954;47.618;17.606;2023-05-29T01:20:11;100239.22;;;14.27;76.06
78643;BME280;67954;47.618;17.606;2023-05-29T01:20:50;100248.97;;;14.36;75.90
78643;BME280;67954;47.618;17.606;2023-05-29T01:21:34;100244.97;;;14.40;75.60
78643;BME280;67954;47.618;17.606;2023-05-29T01:22:28;100249.31;;;14.41;76.20
78643;BME280;67954;47.618;17.606;2023-05-29T01:23:14;100240.69;;;14.38;76.14
78643;BME280;67954;47.618;17.606;2023-05-29T01:24:03;100255.56;;;14.34;76.48
78643;BME280;67954;47.618;17.606;2023-05-29T01:24:49;100249.66;;;14.30;75.97
78643;BME280;67954;47.618;17.606;2023-05-29T01:25:27;100244.09;;;14.31;75.52
78643;BME280;67954;47.618;17.606;2023-05-29T01:26:15;100243.75;;;14.35;75.75
78643;BME280;67954;47.618;17.606;2023-05-29T01:26:52;100245.44;;;14.36;76.19
78643;BME280;67954;47.618;17.606;2023-05-29T01:27:30;100240.88;;;14.36;76.14
78643;BME280;67954;47.618;17.606;2023-05-29T01:28:04;100238.50;;;14.33;75.62
78643;BME280;67954;47.618;17.606;2023-05-29T01:28:41;100251.19;;;14.32;75.83
78643;BME280;67954;47.618;17.606;2023-05-29T01:29:15;100246.47;;;14.26;75.85
78643;BME280;67954;47.618;17.606;2023-05-29T01:29:50;100250.69;;;14.21;75.72
78643;BME280;67954;47.618;17.606;2023-05-29T01:30:24;100246.00;;;14.15;75.90
78643;BME280;67954;47.618;17.606;2023-05-29T01:30:57;100236.00;;;14.07;76.04
78643;BME280;67954;47.618;17.606;2023-05-29T01:31:30;100245.97;;;14.07;76.53
78643;BME280;67954;47.618;17.606;2023-05-29T01:32:01;100246.69;;;14.01;76.46
78643;BME280;67954;47.618;17.606;2023-05-29T01:32:33;100237.19;;;14.05;76.58
78643;BME280;67954;47.618;17.606;2023-05-29T01:33:05;100243.59;;;14.04;76.26
78643;BME280;67954;47.618;17.606;2023-05-29T01:33:39;100243.78;;;14.02;76.24
78643;BME280;67954;47.618;17.606;2023-05-29T01:34:10;100242.75;;;14.03;76.36
78643;BME280;67954;47.618;17.606;2023-05-29T01:34:42;100244.97;;;14.08;76.21
78643;BME280;67954;47.618;17.606;2023-05-29T01:35:13;100237.38;;;14.11;76.00
78643;BME280;67954;47.618;17.606;2023-05-29T01:35:44;100246.50;;;14.10;75.94
78643;BME280;67954;47.618;17.606;2023-05-29T01:36:15;100245.81;;;14.08;76.67
78643;BME280;67954;47.618;17.606;2023-05-29T01:36:47;100237.72;;;14.08;75.84
78643;BME280;67954;47.618;17.606;2023-05-29T01:37:17;100243.59;;;14.04;76.50
78643;BME280;67954;47.618;17.606;2023-05-29T01:37:48;100247.31;;;14.03;76.07
78643;BME280;67954;47.618;17.606;2023-05-29T01:38:20;100235.69;;;13.94;75.97
78643;BME280;67954;47.618;17.606;2023-05-29T01:38:53;100233.50;;;13.89;76.70
78643;BME280;67954;47.618;17.606;2023-05-29T01:39:25;100240.25;;;13.93;76.46
78643;BME280;67954;47.618;17.606;2023-05-29T01:39:57;100233.84;;;13.86;76.89
78643;BME280;67954;47.618;17.606;2023-05-29T01:40:28;100240.56;;;13.90;76.45
78643;BME280;67954;47.618;17.606;2023-05-29T01:41:00;100233.69;;;13.88;76.39
78643;BME280;67954;47.618;17.606;2023-05-29T01:41:33;100239.59;;;13.83;76.58
78643;BME280;67954;47.618;17.606;2023-05-29T01:42:07;100235.88;;;13.84;76.68
78643;BME280;67954;47.618;17.606;2023-05-29T01:42:39;100236.03;;;13.83;76.58
78643;BME280;67954;47.618;17.606;2023-05-29T01:43:12;100232.31;;;13.84;76.76
78643;BME280;67954;47.618;17.606;2023-05-29T01:43:44;100229.94;;;13.81;76.62
78643;BME280;67954;47.618;17.606;2023-05-29T01:44:17;100232.84;;;13.87;76.87
78643;BME280;67954;47.618;17.606;2023-05-29T01:44:50;100235.19;;;13.82;76.65
78643;BME280;67954;47.618;17.606;2023-05-29T01:45:21;100236.53;;;13.78;77.10
78643;BME280;67954;47.618;17.606;2023-05-29T01:45:52;100236.19;;;13.81;76.82
78643;BME280;67954;47.618;17.606;2023-05-29T01:46:23;100235.19;;;13.82;76.83
78643;BME280;67954;47.618;17.606;2023-05-29T01:46:56;100233.34;;;13.83;76.59
78643;BME280;67954;47.618;17.606;2023-05-29T01:47:27;100243.97;;;13.84;76.66
78643;BME280;67954;47.618;17.606;2023-05-29T01:47:58;100236.19;;;13.81;76.66
78643;BME280;67954;47.618;17.606;2023-05-29T01:48:29;100240.75;;;13.81;77.02
78643;BME280;67954;47.618;17.606;2023-05-29T01:49:01;100234.50;;;13.80;77.25
78643;BME280;67954;47.618;17.606;2023-05-29T01:49:33;100237.22;;;13.80;77.13
78643;BME280;67954;47.618;17.606;2023-05-29T01:50:06;100237.22;;;13.80;76.93
78643;BME280;67954;47.618;17.606;2023-05-29T01:50:40;100238.56;;;13.76;77.08
78643;BME280;67954;47.618;17.606;2023-05-29T01:51:14;100242.09;;;13.77;77.14
78643;BME280;67954;47.618;17.606;2023-05-29T01:51:45;100238.91;;;13.73;77.35
78643;BME280;67954;47.618;17.606;2023-05-29T01:52:17;100236.91;;;13.75;77.24
78643;BME280;67954;47.618;17.606;2023-05-29T01:52:48;100240.59;;;13.74;77.05
78643;BME280;67954;47.618;17.606;2023-05-29T01:53:19;100239.06;;;13.72;77.02
78643;BME280;67954;47.618;17.606;2023-05-29T01:53:50;100232.84;;;13.71;77.16
78643;BME280;67954;47.618;17.606;2023-05-29T01:54:22;100234.34;;;13.74;76.68
78643;BME280;67954;47.618;17.606;2023-05-29T01:54:53;100236.38;;;13.72;76.76
78643;BME280;67954;47.618;17.606;2023-05-29T01:55:24;100237.56;;;13.69;76.92
78643;BME280;67954;47.618;17.606;2023-05-29T01:55:56;100234.69;;;13.71;77.42
78643;BME280;67954;47.618;17.606;2023-05-29T01:56:28;100242.09;;;13.69;76.88
78643;BME280;67954;47.618;17.606;2023-05-29T01:56:59;100239.72;;;13.66;77.26
78643;BME280;67954;47.618;17.606;2023-05-29T01:57:35;100235.00;;;13.68;77.27
78643;BME280;67954;47.618;17.606;2023-05-29T01:58:07;100237.22;;;13.72;77.30
78643;BME280;67954;47.618;17.606;2023-05-29T01:58:38;100231.13;;;13.70;76.87
78643;BME280;67954;47.618;17.606;2023-05-29T01:59:12;100230.63;;;13.67;77.20
78643;BME280;67954;47.618;17.606;2023-05-29T01:59:44;100233.50;;;13.73;77.26
78643;BME280;67954;47.618;17.606;2023-05-29T02:00:16;100226.75;;;13.69;77.06
78643;BME280;67954;47.618;17.606;2023-05-29T02:00:47;100228.28;;;13.72;76.70
78643;BME280;67954;47.618;17.606;2023-05-29T02:01:19;100229.97;;;13.73;76.49
78643;BME280;67954;47.618;17.606;2023-05-29T02:01:51;100233.31;;;13.67;77.37
78643;BME280;67954;47.618;17.606;2023-05-29T02:02:22;100227.75;;;13.68;77.08
78643;BME280;67954;47.618;17.606;2023-05-29T02:02:53;100230.47;;;13.68;77.22
78643;BME280;67954;47.618;17.606;2023-05-29T02:03:24;100226.06;;;13.67;77.17
78643;BME280;67954;47.618;17.606;2023-05-29T02:03:59;100231.31;;;13.69;77.68
78643;BME280;67954;47.618;17.606;2023-05-29T02:04:30;100232.16;;;13.69;77.15
78643;BME280;67954;47.618;17.606;2023-05-29T02:05:00;100231.81;;;13.72;76.94
78643;BME280;67954;47.618;17.606;2023-05-29T02:05:32;100237.38;;;13.71;77.48
78643;BME280;67954;47.618;17.606;2023-05-29T02:06:03;100231.13;;;13.70;76.96
78643;BME280;67954;47.618;17.606;2023-05-29T02:06:34;100229.44;;;13.69;77.16
78643;BME280;67954;47.618;17.606;2023-05-29T02:07:05;100234.84;;;13.61;76.98
78643;BME280;67954;47.618;17.606;2023-05-29T02:07:37;100237.41;;;13.63;77.69
78643;BME280;67954;47.618;17.606;2023-05-29T02:08:08;100226.41;;;13.56;77.62
78643;BME280;67954;47.618;17.606;2023-05-29T02:08:39;100235.19;;;13.58;77.88
78643;BME280;67954;47.618;17.606;2023-05-29T02:09:11;100229.47;;;13.61;77.27
78643;BME280;67954;47.618;17.606;2023-05-29T02:09:42;100231.81;;;13.56;78.00
78643;BME280;67954;47.618;17.606;2023-05-29T02:10:13;100225.03;;;13.52;77.73
78643;BME280;67954;47.618;17.606;2023-05-29T02:10:45;100233.81;;;13.54;77.67
78643;BME280;67954;47.618;17.606;2023-05-29T02:11:16;100228.94;;;13.49;77.53
78643;BME280;67954;47.618;17.606;2023-05-29T02:11:47;100234.16;;;13.51;77.78
78643;BME280;67954;47.618;17.606;2023-05-29T02:12:18;100237.88;;;13.50;78.14
78643;BME280;67954;47.618;17.606;2023-05-29T02:12:51;100230.44;;;13.52;77.90
78643;BME280;67954;47.618;17.606;2023-05-29T02:13:21;100225.72;;;13.54;77.47
78643;BME280;67954;47.618;17.606;2023-05-29T02:13:53;100229.59;;;13.51;78.08
78643;BME280;67954;47.618;17.606;2023-05-29T02:14:24;100228.94;;;13.49;77.78
78643;BME280;67954;47.618;17.606;2023-05-29T02:14:55;100228.59;;;13.44;77.59
78643;BME280;67954;47.618;17.606;2023-05-29T02:15:27;100229.75;;;13.42;78.13
78643;BME280;67954;47.618;17.606;2023-05-29T02:15:58;100219.13;;;13.40;77.80
78643;BME280;67954;47.618;17.606;2023-05-29T02:16:29;100230.78;;;13.41;78.08
78643;BME280;67954;47.618;17.606;2023-05-29T02:17:03;100233.13;;;13.36;78.60
78643;BME280;67954;47.618;17.606;2023-05-29T02:17:34;100230.25;;;13.29;78.40
78643;BME280;67954;47.618;17.606;2023-05-29T02:18:05;100223.16;;;13.28;78.22
78643;BME280;67954;47.618;17.606;2023-05-29T02:18:37;100224.03;;;13.37;78.00
78643;BME280;67954;47.618;17.606;2023-05-29T02:19:09;100232.13;;;13.37;78.17
78643;BME280;67954;47.618;17.606;2023-05-29T02:19:40;100227.75;;;13.44;78.13
78643;BME280;67954;47.618;17.606;2023-05-29T02:20:12;100226.22;;;13.41;77.93
78643;BME280;67954;47.618;17.606;2023-05-29T02:20:43;100217.44;;;13.39;78.30
78643;BME280;67954;47.618;17.606;2023-05-29T02:21:13;100221.50;;;13.43;77.88
78643;BME280;67954;47.618;17.606;2023-05-29T02:21:47;100229.44;;;13.45;78.37
78643;BME280;67954;47.618;17.606;2023-05-29T02:22:18;100227.75;;;13.44;78.46
78643;BME280;67954;47.618;17.606;2023-05-29T02:22:49;100223.03;;;13.46;78.05
78643;BME280;67954;47.618;17.606;2023-05-29T02:23:20;100219.81;;;13.42;78.48
78643;BME280;67954;47.618;17.606;2023-05-29T02:23:51;100222.34;;;13.44;78.00
78643;BME280;67954;47.618;17.606;2023-05-29T02:24:22;100225.22;;;13.42;78.22
78643;BME280;67954;47.618;17.606;2023-05-29T02:24:54;100217.78;;;13.44;77.79
78643;BME280;67954;47.618;17.606;2023-05-29T02:25:24;100218.13;;;13.41;77.91
78643;BME280;67954;47.618;17.606;2023-05-29T02:25:55;100215.59;;;13.40;78.33
78643;BME280;67954;47.618;17.606;2023-05-29T02:26:27;100214.25;;;13.44;78.09
78643;BME280;67954;47.618;17.606;2023-05-29T02:26:58;100216.78;;;13.45;77.86
78643;BME280;67954;47.618;17.606;2023-05-29T02:27:28;100219.16;;;13.48;78.20
78643;BME280;67954;47.618;17.606;2023-05-29T02:28:01;100214.59;;;13.49;77.65
78643;BME280;67954;47.618;17.606;2023-05-29T02:28:33;100215.09;;;13.52;77.66
78643;BME280;67954;47.618;17.606;2023-05-29T02:29:03;100221.34;;;13.53;77.83
78643;BME280;67954;47.618;17.606;2023-05-29T02:29:37;100219.47;;;13.53;77.72
78643;BME280;67954;47.618;17.606;2023-05-29T02:30:08;100216.78;;;13.53;78.04
78643;BME280;67954;47.618;17.606;2023-05-29T02:30:39;100216.78;;;13.53;77.79
78643;BME280;67954;47.618;17.606;2023-05-29T02:31:11;100215.94;;;13.53;77.69
78643;BME280;67954;47.618;17.606;2023-05-29T02:31:41;100213.91;;;13.55;77.60
78643;BME280;67954;47.618;17.606;2023-05-29T02:32:12;100208.53;;;13.55;77.64
78643;BME280;67954;47.618;17.606;2023-05-29T02:32:44;100207.69;;;13.54;77.63
78643;BME280;67954;47.618;17.606;2023-05-29T02:33:15;100215.09;;;13.52;77.49
78643;BME280;67954;47.618;17.606;2023-05-29T02:33:46;100207.84;;;13.53;77.83
78643;BME280;67954;47.618;17.606;2023-05-29T02:34:18;100210.53;;;13.53;77.49
78643;BME280;67954;47.618;17.606;2023-05-29T02:34:48;100197.03;;;13.53;77.55
78643;BME280;67954;47.618;17.606;2023-05-29T02:35:20;100205.13;;;13.53;77.58
78643;BME280;67954;47.618;17.606;2023-05-29T02:35:52;100207.00;;;13.52;77.52
78643;BME280;67954;47.618;17.606;2023-05-29T02:36:24;100201.75;;;13.51;78.00
78643;BME280;67954;47.618;17.606;2023-05-29T02:36:55;100201.75;;;13.51;77.93
78643;BME280;67954;47.618;17.606;2023-05-29T02:37:27;100211.22;;;13.47;77.70
78643;BME280;67954;47.618;17.606;2023-05-29T02:37:58;100204.13;;;13.46;77.50
78643;BME280;67954;47.618;17.606;2023-05-29T02:38:29;100204.97;;;13.46;77.50
78643;BME280;67954;47.618;17.606;2023-05-29T02:39:00;100211.22;;;13.47;77.92
78643;BME280;67954;47.618;17.606;2023-05-29T02:39:32;100207.16;;;13.43;77.54
78643;BME280;67954;47.618;17.606;2023-05-29T02:40:03;100205.31;;;13.43;77.54
78643;BME280;67954;47.618;17.606;2023-05-29T02:40:34;100203.94;;;13.39;77.50
78643;BME280;67954;47.618;17.606;2023-05-29T02:41:05;100204.47;;;13.43;77.27
78643;BME280;67954;47.618;17.606;2023-05-29T02:41:36;100207.50;;;13.40;77.91
78643;BME280;67954;47.618;17.606;2023-05-29T02:42:07;100201.94;;;13.41;77.72
78643;BME280;67954;47.618;17.606;2023-05-29T02:42:39;100203.63;;;13.42;78.08
78643;BME280;67954;47.618;17.606;2023-05-29T02:43:12;100202.25;;;13.38;77.74
78643;BME280;67954;47.618;17.606;2023-05-29T02:43:43;100203.94;;;13.39;77.91
78643;BME280;67954;47.618;17.606;2023-05-29T02:44:15;100197.22;;;13.35;77.85
78643;BME280;67954;47.618;17.606;2023-05-29T02:44:46;100206.47;;;13.33;77.81
78643;BME280;67954;47.618;17.606;2023-05-29T02:45:17;100201.25;;;13.31;77.68
78643;BME280;67954;47.618;17.606;2023-05-29T02:45:48;100209.03;;;13.34;77.92
78643;BME280;67954;47.618;17.606;2023-05-29T02:46:20;100204.78;;;13.32;77.71
78643;BME280;67954;47.618;17.606;2023-05-29T02:46:52;100207.50;;;13.32;78.21
78643;BME280;67954;47.618;17.606;2023-05-29T02:47:22;100212.56;;;13.35;77.87
78643;BME280;67954;47.618;17.606;2023-05-29T02:47:53;100211.34;;;13.37;77.64